Time;durP1;ratioP1;P1;durP2;ratioP2;P2;SDS_P1;SDS_P2;PMS_P1;PMS_P2;Temp;Humidity;BMP_temperature;BMP_pressure;BME280_temperature;BME280_humidity;BME280_pressure;Samples;Min_cycle;Max_cycle;Signal;HPM_P1;HPM_P2
2022/06/11 00:02:04;;;;;;;21.98;12.55;;;16.20;99.90;;;;;;5036222;28;20386;-67
2022/06/11 00:04:38;;;;;;;23.42;12.68;;;16.20;99.90;;;;;;5052959;28;20045;-68
2022/06/11 00:07:13;;;;;;;26.48;11.48;;;16.20;99.90;;;;;;5042085;28;20056;-65
2022/06/11 00:09:39;;;;;;;29.35;13.43;;;16.10;99.90;;;;;;5042677;28;20502;-67
2022/06/11 00:12:07;;;;;;;22.88;13.65;;;16.20;99.90;;;;;;5033527;28;20135;-67
2022/06/11 00:14:34;;;;;;;21.52;14.07;;;16.10;99.90;;;;;;5041295;28;20044;-68
2022/06/11 00:17:02;;;;;;;24.08;13.82;;;16.10;99.90;;;;;;5036808;28;20116;-68
2022/06/11 00:19:29;;;;;;;20.10;13.90;;;16.00;99.90;;;;;;5033137;28;20095;-67
2022/06/11 00:21:55;;;;;;;22.67;13.48;;;16.00;99.90;;;;;;5044740;28;20064;-67
2022/06/11 00:24:22;;;;;;;23.98;12.77;;;16.00;99.90;;;;;;5075845;28;20053;-67
2022/06/11 00:26:50;;;;;;;22.27;12.05;;;16.00;99.90;;;;;;5049756;28;20063;-67
2022/06/11 00:29:18;;;;;;;20.92;12.40;;;16.00;99.90;;;;;;5046758;28;20056;-67
2022/06/11 00:31:44;;;;;;;19.80;12.10;;;16.10;99.90;;;;;;5049071;28;20041;-67
2022/06/11 00:34:11;;;;;;;19.38;12.32;;;16.00;99.90;;;;;;5072327;28;20128;-66
2022/06/11 00:36:37;;;;;;;24.23;12.93;;;16.00;99.90;;;;;;5033748;28;20196;-67
2022/06/11 00:39:05;;;;;;;22.85;13.45;;;16.00;99.90;;;;;;5049585;28;20047;-67
2022/06/11 00:41:31;;;;;;;27.30;13.43;;;16.00;99.90;;;;;;5046426;28;20029;-67
2022/06/11 00:43:57;;;;;;;22.23;12.65;;;16.00;99.90;;;;;;5062652;28;20045;-67
2022/06/11 00:46:48;;;;;;;18.60;11.52;;;15.90;99.90;;;;;;5039273;28;20037;-66
2022/06/11 00:49:32;;;;;;;17.63;10.77;;;15.90;99.90;;;;;;5014249;28;20030;-66
2022/06/11 00:52:30;;;;;;;20.73;11.82;;;15.90;99.90;;;;;;5037353;28;20502;-66
2022/06/11 00:55:05;;;;;;;21.95;12.93;;;15.80;99.90;;;;;;5045007;28;20049;-66
2022/06/11 00:57:46;;;;;;;25.35;13.32;;;15.70;99.90;;;;;;5040457;28;20047;-66
2022/06/11 01:00:25;;;;;;;19.30;12.93;;;15.60;99.90;;;;;;5039547;28;20051;-66
2022/06/11 01:02:51;;;;;;;21.20;13.38;;;15.50;99.90;;;;;;5043442;28;20055;-67
2022/06/11 01:05:25;;;;;;;23.73;12.85;;;15.50;99.90;;;;;;5053253;28;20041;-67
2022/06/11 01:08:41;;;;;;;22.60;13.80;;;15.50;99.90;;;;;;5030050;28;20120;-66
2022/06/11 01:11:34;;;;;;;20.10;13.20;;;15.40;99.90;;;;;;4996025;28;20053;-66
2022/06/11 01:14:33;;;;;;;18.58;12.20;;;15.40;99.90;;;;;;5034613;28;20094;-66
2022/06/11 01:17:20;;;;;;;20.40;12.38;;;15.40;99.90;;;;;;5046281;28;20475;-66
2022/06/11 01:20:05;;;;;;;18.45;11.85;;;15.40;99.90;;;;;;5032548;28;20041;-66
2022/06/11 01:23:17;;;;;;;19.20;11.80;;;15.30;99.90;;;;;;5039686;28;20068;-66
2022/06/11 01:25:51;;;;;;;17.90;11.52;;;15.30;99.90;;;;;;5037691;28;20490;-66
2022/06/11 01:32:05;;;;;;;19.90;12.18;;;15.20;99.90;;;;;;5064076;28;20509;-66
2022/06/11 01:35:00;;;;;;;22.45;12.63;;;15.10;99.90;;;;;;5046212;28;20431;-66
2022/06/11 01:37:35;;;;;;;24.27;13.65;;;15.10;99.90;;;;;;5069089;28;20040;-66
2022/06/11 01:40:04;;;;;;;24.92;13.35;;;15.10;99.90;;;;;;5056421;28;20048;-66
2022/06/11 01:42:41;;;;;;;23.48;13.10;;;15.20;99.90;;;;;;5046119;28;20185;-66
2022/06/11 01:45:19;;;;;;;22.40;13.02;;;15.10;99.90;;;;;;5038027;28;20039;-66
2022/06/11 01:47:46;;;;;;;22.00;11.80;;;15.20;99.90;;;;;;5037091;28;20476;-66
2022/06/11 01:50:16;;;;;;;16.25;10.30;;;15.10;99.90;;;;;;5045246;28;20049;-66
2022/06/11 01:53:03;;;;;;;17.55;10.40;;;15.10;99.90;;;;;;5028074;28;20110;-66
2022/06/11 01:56:17;;;;;;;17.50;10.70;;;15.00;99.90;;;;;;5001825;28;20037;-66
2022/06/11 01:58:58;;;;;;;21.38;12.30;;;15.00;99.90;;;;;;5053234;28;20471;-66
2022/06/11 02:01:43;;;;;;;21.38;13.02;;;15.00;99.90;;;;;;5025478;28;20031;-65
2022/06/11 02:04:22;;;;;;;19.92;12.93;;;15.00;99.90;;;;;;5026957;28;20083;-65
2022/06/11 02:07:04;;;;;;;20.63;13.20;;;14.90;99.90;;;;;;5043238;28;20038;-66
2022/06/11 02:10:03;;;;;;;24.30;14.50;;;15.00;99.90;;;;;;5055085;28;20037;-66
2022/06/11 02:12:38;;;;;;;25.98;14.15;;;14.90;99.90;;;;;;5027128;28;20056;-66
2022/06/11 02:15:34;;;;;;;23.42;14.18;;;14.90;99.90;;;;;;5023297;28;20124;-66
2022/06/11 02:18:03;;;;;;;26.65;14.15;;;14.90;99.90;;;;;;5026248;28;20487;-66
2022/06/11 02:20:53;;;;;;;29.75;14.23;;;14.90;99.90;;;;;;5024931;28;20041;-66
2022/06/11 02:23:35;;;;;;;28.38;14.98;;;14.80;99.90;;;;;;5012541;28;20045;-66
2022/06/11 02:26:08;;;;;;;24.30;14.50;;;14.80;99.90;;;;;;5027497;28;20037;-66
2022/06/11 02:28:39;;;;;;;25.55;14.95;;;14.80;99.90;;;;;;5023137;28;20468;-66
2022/06/11 02:31:07;;;;;;;22.90;14.70;;;14.80;99.90;;;;;;5014760;28;20033;-66
2022/06/11 02:33:35;;;;;;;29.15;14.35;;;14.70;99.90;;;;;;5017703;28;20487;-66
2022/06/11 02:36:14;;;;;;;27.35;14.90;;;14.70;99.90;;;;;;5016309;28;20480;-66
2022/06/11 02:38:40;;;;;;;28.48;14.93;;;14.70;99.90;;;;;;5014360;28;20034;-66
2022/06/11 02:41:21;;;;;;;32.22;15.52;;;14.80;99.90;;;;;;5020006;28;20423;-66
2022/06/11 02:43:47;;;;;;;32.63;15.95;;;14.70;99.90;;;;;;5023430;28;20064;-66
2022/06/11 02:48:56;;;;;;;28.23;16.15;;;14.60;99.90;;;;;;5024841;28;20069;-66
2022/06/11 02:51:24;;;;;;;26.02;15.65;;;14.60;99.90;;;;;;5025636;28;20483;-66
2022/06/11 02:53:50;;;;;;;30.63;16.55;;;14.60;99.90;;;;;;5024306;28;20045;-66
2022/06/11 02:56:17;;;;;;;27.73;16.30;;;14.60;99.90;;;;;;5026051;28;20502;-66
2022/06/11 02:58:43;;;;;;;25.25;16.02;;;14.60;99.90;;;;;;5024627;28;20445;-66
2022/06/11 03:01:09;;;;;;;29.65;16.33;;;14.50;99.90;;;;;;5024064;28;20037;-66
2022/06/11 03:03:36;;;;;;;29.63;16.65;;;14.60;99.90;;;;;;5024883;28;20060;-65
2022/06/11 03:06:02;;;;;;;30.08;16.67;;;14.50;99.90;;;;;;5028147;28;20041;-66
2022/06/11 03:08:28;;;;;;;31.70;16.92;;;14.50;99.90;;;;;;5012663;28;20094;-67
2022/06/11 03:10:57;;;;;;;32.83;16.48;;;14.40;99.90;;;;;;5026717;28;20041;-66
2022/06/11 03:13:24;;;;;;;27.50;15.65;;;14.40;99.90;;;;;;5023946;28;20487;-67
2022/06/11 03:15:50;;;;;;;33.45;16.67;;;14.40;99.90;;;;;;5047706;28;20049;-66
2022/06/11 03:18:16;;;;;;;29.27;15.45;;;14.40;99.90;;;;;;5017066;28;20403;-67
2022/06/11 03:20:42;;;;;;;33.60;14.95;;;14.50;99.90;;;;;;5027598;28;20029;-69
2022/06/11 03:23:09;;;;;;;29.85;14.25;;;14.40;99.90;;;;;;5027199;28;20076;-66
2022/06/11 03:25:36;;;;;;;27.73;14.43;;;14.40;99.90;;;;;;5031468;28;20463;-68
2022/06/11 03:28:11;;;;;;;25.90;12.57;;;14.40;99.90;;;;;;5047517;28;20142;-68
2022/06/11 03:30:37;;;;;;;22.35;12.05;;;14.30;99.90;;;;;;5025243;28;20160;-67
2022/06/11 03:33:04;;;;;;;27.17;11.70;;;14.30;99.90;;;;;;5025258;28;20041;-66
2022/06/11 03:35:30;;;;;;;20.60;10.82;;;14.30;99.90;;;;;;5017813;28;20045;-66
2022/06/11 03:37:56;;;;;;;25.80;10.95;;;14.30;99.90;;;;;;5020678;28;20520;-68
2022/06/11 03:40:22;;;;;;;23.48;9.80;;;14.30;99.90;;;;;;5024076;28;20029;-64
2022/06/11 03:42:47;;;;;;;20.15;8.30;;;14.30;99.90;;;;;;5020813;28;20105;-67
2022/06/11 03:45:14;;;;;;;22.60;8.70;;;14.30;99.90;;;;;;5027285;28;20128;-66
2022/06/11 03:47:40;;;;;;;22.60;8.40;;;14.30;99.90;;;;;;5044590;28;20076;-66
2022/06/11 03:50:16;;;;;;;22.10;7.43;;;14.30;99.90;;;;;;5026481;28;20037;-68
2022/06/11 03:52:41;;;;;;;25.65;7.65;;;14.20;99.90;;;;;;5025935;28;20041;-68
2022/06/11 03:55:07;;;;;;;17.33;6.55;;;14.20;99.90;;;;;;5027679;28;20037;-68
2022/06/11 03:57:34;;;;;;;20.23;6.88;;;14.20;99.90;;;;;;5025155;28;20037;-69
2022/06/11 04:00:01;;;;;;;22.70;6.50;;;14.20;99.90;;;;;;5009083;28;20071;-69
2022/06/11 04:02:28;;;;;;;23.15;6.35;;;14.20;99.90;;;;;;5028241;28;20029;-65
2022/06/11 04:04:53;;;;;;;20.25;5.68;;;14.20;99.90;;;;;;5027313;28;20044;-69
2022/06/11 04:07:19;;;;;;;22.65;6.55;;;14.20;99.90;;;;;;5026242;28;20481;-69
2022/06/11 04:09:46;;;;;;;20.50;5.63;;;14.10;99.90;;;;;;5032784;28;20487;-64
2022/06/11 04:12:15;;;;;;;21.73;6.18;;;14.10;99.90;;;;;;5024318;28;20064;-66
2022/06/11 04:14:46;;;;;;;28.13;5.78;;;14.20;99.90;;;;;;5022975;28;20487;-67
2022/06/11 04:17:19;;;;;;;19.63;5.03;;;14.30;99.90;;;;;;5017836;28;20037;-67
2022/06/11 04:19:48;;;;;;;21.40;5.03;;;14.30;99.90;;;;;;5017616;28;20506;-66
2022/06/11 04:22:15;;;;;;;19.65;5.05;;;14.30;99.90;;;;;;5019476;28;20033;-68
2022/06/11 04:24:41;;;;;;;20.98;4.85;;;14.40;99.90;;;;;;5017065;28;20042;-69
2022/06/11 04:27:09;;;;;;;15.68;4.75;;;14.30;99.90;;;;;;5007832;28;20480;-70
2022/06/11 04:29:40;;;;;;;16.90;4.88;;;14.40;99.90;;;;;;5025838;28;20463;-68
2022/06/11 04:32:08;;;;;;;16.90;4.82;;;14.40;99.90;;;;;;5025531;28;20057;-68
2022/06/11 04:34:35;;;;;;;18.15;4.82;;;14.50;99.90;;;;;;5033829;28;20053;-67
2022/06/11 04:37:01;;;;;;;19.02;5.15;;;14.50;99.90;;;;;;5015911;28;20418;-68
2022/06/11 04:39:30;;;;;;;19.00;5.28;;;14.50;99.90;;;;;;5019805;28;20041;-67
2022/06/11 04:41:56;;;;;;;24.83;5.50;;;14.60;99.90;;;;;;5016624;28;20475;-67
2022/06/11 04:44:22;;;;;;;20.02;5.22;;;14.60;99.90;;;;;;5020282;28;20065;-69
2022/06/11 04:46:48;;;;;;;17.58;5.03;;;14.60;99.90;;;;;;5019492;28;20044;-67
2022/06/11 04:49:14;;;;;;;20.85;4.90;;;14.60;99.90;;;;;;5022839;28;20045;-66
2022/06/11 04:51:41;;;;;;;20.83;6.03;;;14.70;99.90;;;;;;5022203;28;20063;-67
2022/06/11 04:54:07;;;;;;;25.45;5.60;;;14.70;99.90;;;;;;5009736;28;20094;-69
2022/06/11 04:56:33;;;;;;;22.23;5.55;;;14.60;99.90;;;;;;5022350;28;20497;-69
2022/06/11 04:58:59;;;;;;;20.00;6.53;;;14.70;99.90;;;;;;5022600;28;20126;-70
2022/06/11 05:01:26;;;;;;;19.88;5.70;;;14.80;99.90;;;;;;5003366;28;20475;-69
2022/06/11 05:03:52;;;;;;;15.27;6.40;;;14.90;99.90;;;;;;5018460;28;20426;-70
2022/06/11 05:06:22;;;;;;;33.30;6.82;;;14.90;99.90;;;;;;5018474;28;20072;-69
2022/06/11 05:08:48;;;;;;;20.52;6.20;;;15.00;99.90;;;;;;5013786;28;20491;-67
2022/06/11 05:11:14;;;;;;;17.90;6.80;;;15.10;99.90;;;;;;5020193;28;20037;-66
2022/06/11 05:13:39;;;;;;;20.05;6.35;;;15.10;99.90;;;;;;5020650;28;20407;-71
2022/06/11 05:16:05;;;;;;;19.50;7.10;;;15.10;99.90;;;;;;5019637;28;20040;-66
2022/06/11 05:18:33;;;;;;;20.02;6.68;;;15.10;99.90;;;;;;5016622;28;20514;-68
2022/06/11 05:21:00;;;;;;;21.85;6.03;;;15.30;99.90;;;;;;5011860;28;20095;-68
2022/06/11 05:23:26;;;;;;;19.58;6.30;;;15.20;99.90;;;;;;5016293;28;20171;-70
2022/06/11 05:25:51;;;;;;;21.80;6.55;;;15.20;99.90;;;;;;5022911;28;20550;-69
2022/06/11 05:28:24;;;;;;;20.65;6.25;;;15.30;99.90;;;;;;5018698;28;20037;-65
2022/06/11 05:30:52;;;;;;;19.85;6.75;;;15.40;99.90;;;;;;5025240;28;20040;-66
2022/06/11 05:33:18;;;;;;;18.38;5.95;;;15.40;99.90;;;;;;5037344;28;20048;-69
2022/06/11 05:35:45;;;;;;;22.35;6.22;;;15.40;99.90;;;;;;5024057;28;20029;-68
2022/06/11 05:38:14;;;;;;;21.77;6.38;;;15.50;99.90;;;;;;5019300;28;20065;-67
2022/06/11 05:40:41;;;;;;;22.17;6.10;;;15.50;99.90;;;;;;5001588;28;20069;-67
2022/06/11 05:43:08;;;;;;;22.38;6.30;;;15.50;99.90;;;;;;5037867;28;20084;-67
2022/06/11 05:45:40;;;;;;;23.25;6.68;;;15.60;99.90;;;;;;5042475;28;20037;-66
2022/06/11 05:48:09;;;;;;;28.25;6.95;;;15.60;99.90;;;;;;5024431;28;20089;-68
2022/06/11 05:50:39;;;;;;;20.02;6.57;;;15.70;99.90;;;;;;5035052;28;20033;-65
2022/06/11 05:53:06;;;;;;;27.58;6.03;;;15.80;99.90;;;;;;5010208;28;20040;-67
2022/06/11 05:55:34;;;;;;;25.23;6.30;;;15.80;99.90;;;;;;5015241;28;20071;-68
2022/06/11 05:58:03;;;;;;;29.80;5.90;;;15.90;99.90;;;;;;5019804;28;20033;-66
2022/06/11 06:00:30;;;;;;;26.13;6.18;;;15.90;99.90;;;;;;5015300;28;20048;-65
2022/06/11 06:02:56;;;;;;;31.35;6.15;;;16.00;99.90;;;;;;5013843;28;20487;-67
2022/06/11 06:05:26;;;;;;;28.33;5.75;;;16.00;99.90;;;;;;5003446;28;20037;-70
2022/06/11 06:07:51;;;;;;;20.95;5.57;;;16.00;99.90;;;;;;5011332;28;20094;-66
2022/06/11 06:10:18;;;;;;;27.92;6.38;;;16.10;99.90;;;;;;5025343;28;20044;-66
2022/06/11 06:12:43;;;;;;;23.15;6.60;;;16.20;99.90;;;;;;5018607;28;20139;-66
2022/06/11 06:15:15;;;;;;;29.75;6.15;;;16.10;99.90;;;;;;5017156;28;20045;-66
2022/06/11 06:17:41;;;;;;;29.70;6.20;;;16.10;99.90;;;;;;5019090;28;20087;-67
2022/06/11 06:20:11;;;;;;;26.95;5.45;;;16.20;99.90;;;;;;5002249;28;20400;-66
2022/06/11 06:22:38;;;;;;;31.17;6.22;;;16.30;99.90;;;;;;5021837;28;20033;-64
2022/06/11 06:25:04;;;;;;;24.65;6.20;;;16.20;99.90;;;;;;5025556;28;20045;-69
2022/06/11 06:27:30;;;;;;;28.67;6.30;;;16.30;99.90;;;;;;5012534;28;20077;-67
2022/06/11 06:29:55;;;;;;;24.33;6.43;;;16.40;99.90;;;;;;5002316;28;20134;-66
2022/06/11 06:32:21;;;;;;;35.90;7.07;;;16.40;99.90;;;;;;5011444;28;20052;-66
2022/06/11 06:34:47;;;;;;;33.40;5.85;;;16.50;99.90;;;;;;5021910;28;20039;-66
2022/06/11 06:37:13;;;;;;;26.75;6.57;;;16.60;99.90;;;;;;5019195;28;20596;-70
2022/06/11 06:39:39;;;;;;;29.10;6.38;;;16.60;99.90;;;;;;5018626;28;20360;-66
2022/06/11 06:42:06;;;;;;;37.10;6.43;;;16.60;99.90;;;;;;5021029;28;20064;-64
2022/06/11 06:44:32;;;;;;;29.30;6.72;;;16.70;99.90;;;;;;5016118;28;20524;-65
2022/06/11 06:46:58;;;;;;;27.92;6.30;;;16.70;99.90;;;;;;5005376;28;20046;-65
2022/06/11 06:49:24;;;;;;;27.13;5.85;;;16.80;99.90;;;;;;5018472;28;20136;-66
2022/06/11 06:51:49;;;;;;;30.02;7.13;;;16.80;99.90;;;;;;5018354;28;20049;-67
2022/06/11 06:54:15;;;;;;;27.33;6.47;;;16.90;99.90;;;;;;5014327;28;20129;-67
2022/06/11 06:56:41;;;;;;;26.92;6.40;;;17.00;99.90;;;;;;5003482;28;20136;-66
2022/06/11 06:59:07;;;;;;;29.98;6.00;;;17.00;99.90;;;;;;5034454;28;20061;-66
2022/06/11 07:01:33;;;;;;;32.90;6.47;;;17.10;99.90;;;;;;5005912;28;20417;-66
2022/06/11 07:03:59;;;;;;;29.88;7.10;;;17.10;99.90;;;;;;5021580;28;20041;-65
2022/06/11 07:06:25;;;;;;;29.25;6.55;;;17.30;99.90;;;;;;5020831;28;20380;-66
2022/06/11 07:08:53;;;;;;;37.05;7.25;;;17.40;99.90;;;;;;5006895;28;20034;-67
2022/06/11 07:11:19;;;;;;;32.33;6.43;;;17.50;99.90;;;;;;5024891;28;20041;-65
2022/06/11 07:13:46;;;;;;;32.15;6.07;;;17.60;99.90;;;;;;5018728;28;20040;-64
2022/06/11 07:16:15;;;;;;;37.17;6.25;;;17.70;99.90;;;;;;5001500;28;20065;-67
2022/06/11 07:18:46;;;;;;;31.02;6.95;;;17.60;99.90;;;;;;5035459;28;20642;-67
2022/06/11 07:21:24;;;;;;;26.58;5.82;;;17.60;99.90;;;;;;5023622;28;20040;-65
2022/06/11 07:23:57;;;;;;;33.50;6.68;;;17.70;99.90;;;;;;5019979;28;20037;-65
2022/06/11 07:26:36;;;;;;;29.05;6.32;;;17.80;99.90;;;;;;5023653;28;20260;-67
2022/06/11 07:29:10;;;;;;;29.17;6.25;;;17.80;99.90;;;;;;5019483;28;20056;-68
2022/06/11 07:31:37;;;;;;;34.65;5.90;;;17.70;99.90;;;;;;5016479;28;20045;-69
2022/06/11 07:34:04;;;;;;;31.30;6.70;;;17.70;99.90;;;;;;5018779;28;20052;-66
2022/06/11 07:36:30;;;;;;;25.88;6.07;;;17.80;99.90;;;;;;5012004;28;20081;-66
2022/06/11 07:38:56;;;;;;;38.83;6.50;;;17.90;99.90;;;;;;5024597;28;20088;-67
2022/06/11 07:41:21;;;;;;;31.92;6.63;;;17.90;99.90;;;;;;5025459;28;20356;-68
2022/06/11 07:43:47;;;;;;;26.40;6.50;;;17.80;99.90;;;;;;5009197;28;20043;-64
2022/06/11 07:46:12;;;;;;;34.55;7.32;;;17.70;99.90;;;;;;5008145;28;20475;-65
2022/06/11 07:48:39;;;;;;;41.00;6.75;;;17.70;99.90;;;;;;5012573;28;20072;-65
2022/06/11 07:51:04;;;;;;;30.58;6.70;;;17.80;99.90;;;;;;5013804;28;20053;-67
2022/06/11 07:53:31;;;;;;;31.90;6.40;;;18.00;99.90;;;;;;5021591;28;20627;-66
2022/06/11 07:55:57;;;;;;;33.88;6.60;;;18.10;99.90;;;;;;5011522;28;20037;-67
2022/06/11 07:58:27;;;;;;;34.22;6.90;;;18.20;99.90;;;;;;5029187;28;20037;-64
2022/06/11 08:00:53;;;;;;;25.85;6.38;;;18.20;99.90;;;;;;5007667;28;20124;-64
2022/06/11 08:03:20;;;;;;;32.72;6.25;;;18.20;99.90;;;;;;5024448;28;20472;-66
2022/06/11 08:05:46;;;;;;;26.65;5.90;;;18.20;99.90;;;;;;5012936;28;20092;-67
2022/06/11 08:08:13;;;;;;;31.00;6.75;;;18.20;99.90;;;;;;5012008;28;20048;-65
2022/06/11 08:10:40;;;;;;;32.67;6.32;;;18.30;99.90;;;;;;5011240;28;20049;-66
2022/06/11 08:13:08;;;;;;;30.85;6.22;;;18.20;99.90;;;;;;5045780;28;20084;-66
2022/06/11 08:15:33;;;;;;;33.90;6.20;;;18.30;99.90;;;;;;5012730;28;20085;-66
2022/06/11 08:17:59;;;;;;;35.65;7.15;;;18.20;99.90;;;;;;5003798;28;20265;-68
2022/06/11 08:20:30;;;;;;;41.80;6.45;;;18.30;99.90;;;;;;4993632;28;20142;-65
2022/06/11 08:22:57;;;;;;;29.92;6.20;;;18.40;99.90;;;;;;4993850;28;20034;-65
2022/06/11 08:25:23;;;;;;;31.45;6.60;;;18.50;99.90;;;;;;5010822;28;20046;-65
2022/06/11 08:27:50;;;;;;;33.55;7.13;;;18.60;99.90;;;;;;5023560;28;20050;-66
2022/06/11 08:30:18;;;;;;;35.08;6.85;;;18.60;99.90;;;;;;5029619;28;20506;-65
2022/06/11 08:32:45;;;;;;;32.15;6.32;;;18.80;99.90;;;;;;5025702;28;20045;-67
2022/06/11 08:35:15;;;;;;;30.05;6.47;;;18.90;99.90;;;;;;5014043;28;20052;-67
2022/06/11 08:37:41;;;;;;;27.90;5.53;;;18.80;99.90;;;;;;5020767;28;20068;-66
2022/06/11 08:40:35;;;;;;;26.80;6.55;;;18.60;99.90;;;;;;5020854;28;20167;-64
2022/06/11 08:43:26;;;;;;;35.10;7.05;;;18.50;99.90;;;;;;5012112;28;20057;-67
2022/06/11 08:46:04;;;;;;;24.60;5.40;;;18.60;99.90;;;;;;5013699;28;20068;-68
2022/06/11 08:48:39;;;;;;;28.85;6.20;;;18.70;99.90;;;;;;5018546;28;20056;-64
2022/06/11 08:51:20;;;;;;;23.13;5.32;;;18.70;99.90;;;;;;5017227;28;20083;-66
2022/06/11 08:53:48;;;;;;;26.65;5.70;;;18.80;99.90;;;;;;5021324;28;20045;-66
2022/06/11 08:56:22;;;;;;;37.20;6.70;;;18.80;99.90;;;;;;5019996;28;20060;-67
2022/06/11 08:59:00;;;;;;;29.85;5.55;;;18.90;99.90;;;;;;5025033;28;20046;-67
2022/06/11 09:01:37;;;;;;;26.80;5.50;;;18.90;99.90;;;;;;5015260;28;20047;-65
2022/06/11 09:04:02;;;;;;;25.98;5.57;;;18.90;99.90;;;;;;5015892;28;20124;-64
2022/06/11 09:06:34;;;;;;;27.02;4.97;;;19.00;99.90;;;;;;5011531;28;20141;-66
2022/06/11 09:09:02;;;;;;;30.85;6.15;;;19.00;99.90;;;;;;5015354;28;20103;-67
2022/06/11 09:11:40;;;;;;;25.23;5.95;;;19.10;99.90;;;;;;5013774;28;20099;-66
2022/06/11 09:14:19;;;;;;;26.52;5.72;;;19.10;99.90;;;;;;5018627;28;20088;-68
2022/06/11 09:17:16;;;;;;;24.85;5.60;;;19.20;99.90;;;;;;4999045;28;20329;-64
2022/06/11 09:20:00;;;;;;;22.92;4.80;;;19.30;99.90;;;;;;5025189;28;20412;-67
2022/06/11 09:22:59;;;;;;;18.77;4.57;;;19.40;99.90;;;;;;5010616;28;20388;-67
2022/06/11 09:25:47;;;;;;;32.70;5.78;;;19.30;99.90;;;;;;5019528;28;20519;-65
2022/06/11 09:28:35;;;;;;;25.52;5.30;;;19.30;99.90;;;;;;5006858;28;20049;-67
2022/06/11 09:31:13;;;;;;;26.58;5.05;;;19.40;99.90;;;;;;5014812;28;20494;-67
2022/06/11 09:33:56;;;;;;;30.10;5.82;;;19.40;99.90;;;;;;5016737;28;20045;-65
2022/06/11 09:36:33;;;;;;;18.20;4.90;;;19.50;99.90;;;;;;5009572;28;20124;-66
2022/06/11 09:39:13;;;;;;;26.30;5.13;;;19.60;99.90;;;;;;5018764;28;20458;-65
2022/06/11 09:41:44;;;;;;;22.30;4.85;;;19.70;99.90;;;;;;5021933;28;20396;-64
2022/06/11 09:44:37;;;;;;;24.17;4.20;;;19.90;99.90;;;;;;5028718;28;20033;-67
2022/06/11 09:47:16;;;;;;;22.17;4.47;;;19.90;99.90;;;;;;5025842;28;20113;-66
2022/06/11 09:50:09;;;;;;;21.10;4.65;;;19.80;99.90;;;;;;5030638;28;20042;-66
2022/06/11 09:52:43;;;;;;;26.10;4.43;;;19.90;99.90;;;;;;5032522;28;20041;-67
2022/06/11 09:55:17;;;;;;;21.17;4.40;;;19.90;99.90;;;;;;5062578;28;20049;-68
2022/06/11 09:58:04;;;;;;;21.13;4.65;;;20.00;99.90;;;;;;5054180;28;20045;-67
2022/06/11 10:00:42;;;;;;;22.60;4.00;;;19.90;99.90;;;;;;4989513;28;20080;-64
2022/06/11 10:05:55;;;;;;;20.27;4.15;;;20.00;99.90;;;;;;5051950;28;20531;-69
2022/06/11 10:08:27;;;;;;;16.40;3.50;;;19.90;99.90;;;;;;5021576;28;20125;-64
2022/06/11 10:10:53;;;;;;;13.55;3.85;;;19.90;99.90;;;;;;5047207;28;20461;-66
2022/06/11 10:13:40;;;;;;;18.40;4.38;;;19.90;99.90;;;;;;5029191;28;20425;-68
2022/06/11 10:16:34;;;;;;;23.23;4.45;;;19.90;99.90;;;;;;5033371;28;20551;-65
2022/06/11 10:19:32;;;;;;;27.63;4.32;;;20.00;99.90;;;;;;5017729;28;20053;-68
2022/06/11 10:22:04;;;;;;;19.80;4.03;;;20.10;99.90;;;;;;5022739;28;20046;-67
2022/06/11 10:24:34;;;;;;;19.10;4.43;;;20.20;99.90;;;;;;5031543;28;20044;-65
2022/06/11 10:27:11;;;;;;;16.02;3.63;;;20.20;99.90;;;;;;5032652;28;20472;-68
2022/06/11 10:29:46;;;;;;;19.48;4.18;;;20.20;99.90;;;;;;5022888;28;20472;-65
2022/06/11 10:32:28;;;;;;;21.92;4.03;;;20.20;99.90;;;;;;5021857;28;20047;-67
2022/06/11 10:35:13;;;;;;;16.92;3.88;;;20.30;99.90;;;;;;5016852;28;20514;-65
2022/06/11 10:38:04;;;;;;;21.63;4.03;;;20.30;99.90;;;;;;5015282;28;20157;-66
2022/06/11 10:40:39;;;;;;;16.40;3.80;;;20.30;99.90;;;;;;5012912;28;20053;-64
2022/06/11 10:43:28;;;;;;;24.20;4.70;;;20.40;99.90;;;;;;5049801;28;20038;-66
2022/06/11 10:45:55;;;;;;;25.85;4.45;;;20.60;99.90;;;;;;5020321;28;20025;-66
2022/06/11 10:48:23;;;;;;;20.77;4.22;;;20.60;99.90;;;;;;5036290;28;20040;-66
2022/06/11 10:50:49;;;;;;;23.13;4.25;;;20.60;99.90;;;;;;5030170;28;20403;-66
2022/06/11 10:53:34;;;;;;;24.00;4.40;;;20.60;99.90;;;;;;5038817;28;20036;-67
2022/06/11 10:56:31;;;;;;;22.70;4.20;;;20.60;99.90;;;;;;5039721;28;20064;-66
2022/06/11 10:59:05;;;;;;;23.73;4.28;;;20.60;99.90;;;;;;5018023;28;20056;-68
2022/06/11 11:01:41;;;;;;;21.75;4.38;;;20.50;99.90;;;;;;5042153;28;20049;-67
2022/06/11 11:04:13;;;;;;;22.42;4.07;;;20.40;99.90;;;;;;5038834;28;20124;-66
2022/06/11 11:06:39;;;;;;;25.10;5.00;;;20.50;99.90;;;;;;5031703;28;20051;-66
2022/06/11 11:09:06;;;;;;;22.38;4.63;;;20.50;99.90;;;;;;5033515;28;20041;-67
2022/06/11 11:11:56;;;;;;;15.00;3.88;;;20.50;99.90;;;;;;5023132;28;20045;-66
2022/06/11 11:14:41;;;;;;;16.10;4.20;;;20.50;99.90;;;;;;5013747;28;20067;-66
2022/06/11 11:17:25;;;;;;;22.23;4.35;;;20.60;99.90;;;;;;5031333;28;20032;-67
2022/06/11 11:22:41;;;;;;;22.17;4.07;;;20.50;99.90;;;;;;5013775;28;20087;-67
2022/06/11 11:25:15;;;;;;;21.58;4.55;;;20.60;99.90;;;;;;5013429;28;20103;-66
2022/06/11 11:27:46;;;;;;;20.40;4.18;;;20.40;99.90;;;;;;5039796;28;20052;-67
2022/06/11 11:30:23;;;;;;;26.13;3.92;;;20.40;99.90;;;;;;5083452;28;20041;-65
2022/06/11 11:32:48;;;;;;;24.05;4.28;;;20.40;99.90;;;;;;5034544;28;20113;-68
2022/06/11 11:35:21;;;;;;;23.67;4.65;;;20.50;99.90;;;;;;5034083;28;20049;-66
2022/06/11 11:38:03;;;;;;;22.58;4.00;;;20.50;99.90;;;;;;5020065;28;20034;-68
2022/06/11 11:40:35;;;;;;;24.92;4.78;;;20.60;99.90;;;;;;5020774;28;20049;-65
2022/06/11 11:43:08;;;;;;;24.40;4.75;;;20.70;99.90;;;;;;5040149;28;20037;-66
2022/06/11 11:45:42;;;;;;;26.42;4.72;;;20.80;99.90;;;;;;5042318;28;20036;-65
2022/06/11 11:48:16;;;;;;;26.42;4.00;;;21.00;99.90;;;;;;5031320;28;20439;-67
2022/06/11 11:50:43;;;;;;;19.75;3.95;;;20.90;99.90;;;;;;5033366;28;21347;-64
2022/06/11 11:53:11;;;;;;;18.83;4.13;;;20.80;99.90;;;;;;5042278;28;20391;-68
2022/06/11 11:55:40;;;;;;;19.80;4.28;;;20.80;99.90;;;;;;5038140;28;20041;-65
2022/06/11 11:58:06;;;;;;;20.92;4.60;;;20.80;99.90;;;;;;5022619;28;20069;-64
2022/06/11 12:00:49;;;;;;;25.98;4.18;;;20.70;99.90;;;;;;5024239;28;20067;-65
2022/06/11 12:03:23;;;;;;;18.05;4.07;;;20.60;99.90;;;;;;5025029;28;20372;-69
2022/06/11 12:05:55;;;;;;;22.33;4.18;;;20.60;99.90;;;;;;5037032;28;20048;-66
2022/06/11 12:08:29;;;;;;;18.23;4.22;;;20.70;99.90;;;;;;5029067;28;20051;-68
2022/06/11 12:10:58;;;;;;;18.73;4.28;;;20.80;99.90;;;;;;5018834;28;20041;-65
2022/06/11 12:13:48;;;;;;;19.13;3.72;;;21.00;99.90;;;;;;5016489;28;20058;-69
2022/06/11 12:16:39;;;;;;;17.67;4.28;;;21.00;99.90;;;;;;5040741;28;20564;-67
2022/06/11 12:19:14;;;;;;;17.48;4.05;;;20.90;99.90;;;;;;5067202;28;20100;-66
2022/06/11 12:21:42;;;;;;;19.45;4.50;;;20.80;99.90;;;;;;5044803;28;20041;-68
2022/06/11 12:24:20;;;;;;;23.13;4.70;;;20.80;99.90;;;;;;5041183;28;20032;-67
2022/06/11 12:26:51;;;;;;;25.08;6.25;;;20.80;99.90;;;;;;5041932;28;20037;-69
2022/06/11 12:29:33;;;;;;;21.48;4.38;;;20.90;99.90;;;;;;5037034;28;20041;-66
2022/06/11 12:32:00;;;;;;;;;;;21.00;99.90;;;;;;5064885;28;20151;-65
2022/06/11 12:34:30;;;;;;;21.00;4.72;;;21.10;99.90;;;;;;5037080;28;19920;-65
2022/06/11 12:37:07;;;;;;;24.35;5.32;;;21.00;99.90;;;;;;5030020;28;20068;-68
2022/06/11 12:40:00;;;;;;;25.00;5.55;;;21.00;99.90;;;;;;5039226;28;20043;-67
2022/06/11 12:42:47;;;;;;;25.70;5.45;;;21.00;99.90;;;;;;5039721;28;20593;-68
2022/06/11 12:45:32;;;;;;;26.90;5.32;;;21.10;99.90;;;;;;5036089;28;20055;-65
2022/06/11 12:47:57;;;;;;;25.27;5.15;;;21.10;99.90;;;;;;5043621;28;20041;-65
2022/06/11 12:50:38;;;;;;;20.25;4.18;;;21.20;99.90;;;;;;5044655;28;20033;-63
2022/06/11 12:53:11;;;;;;;22.40;4.97;;;21.30;99.90;;;;;;5037166;28;20059;-68
2022/06/11 12:55:56;;;;;;;22.02;5.05;;;21.30;99.90;;;;;;5041992;28;20037;-68
2022/06/11 12:58:27;;;;;;;23.50;5.10;;;21.30;99.90;;;;;;5032573;28;20040;-68
2022/06/11 13:00:57;;;;;;;30.60;6.13;;;21.30;99.90;;;;;;5034707;28;20037;-65
2022/06/11 13:03:41;;;;;;;28.38;5.00;;;21.20;99.90;;;;;;5036814;28;20079;-65
2022/06/11 13:06:36;;;;;;;20.90;4.82;;;21.20;99.90;;;;;;5071070;28;20033;-67
2022/06/11 13:09:33;;;;;;;24.13;5.35;;;21.40;99.90;;;;;;5078278;28;20048;-69
2022/06/11 13:12:16;;;;;;;24.85;5.57;;;21.40;99.90;;;;;;5016431;28;21412;-67
2022/06/11 13:14:58;;;;;;;25.02;5.20;;;21.40;99.90;;;;;;5046021;28;20040;-65
2022/06/11 13:18:01;;;;;;;25.92;5.65;;;21.30;99.90;;;;;;5044746;28;20037;-65